Time;durP1;ratioP1;P1;durP2;ratioP2;P2;SDS_P1;SDS_P2;PMS_P1;PMS_P2;Temp;Humidity;BMP_temperature;BMP_pressure;BME280_temperature;BME280_humidity;BME280_pressure;Samples;Min_cycle;Max_cycle;Signal;HPM_P1;HPM_P2
2022/04/27 00:00:57;;;;;;;;;;;;;;;11.38;46.35;101207.84;4963629;28;7178;-73
2022/04/27 00:03:23;;;;;;;;;;;;;;;11.33;46.56;101210.13;4998623;28;6787;-73
2022/04/27 00:05:48;;;;;;;;;;;;;;;11.29;46.36;101203.06;4981294;28;6883;-73
2022/04/27 00:08:14;;;;;;;;;;;;;;;11.27;46.62;101203.78;4982543;28;6863;-74
2022/04/27 00:10:40;;;;;;;;;;;;;;;11.23;46.78;101206.16;4981572;28;7029;-74
2022/04/27 00:13:05;;;;;;;;;;;;;;;11.21;46.90;101207.75;4981687;28;6776;-74
2022/04/27 00:15:31;;;;;;;;;;;;;;;11.18;46.70;101202.44;4981098;28;6799;-74
2022/04/27 00:17:57;;;;;;;;;;;;;;;11.15;46.91;101197.13;4955139;28;7189;-74
2022/04/27 00:20:23;;;;;;;;;;;;;;;11.11;47.23;101200.34;4996924;28;6779;-73
2022/04/27 00:22:48;;;;;;;;;;;;;;;11.09;47.14;101202.78;4976122;28;6791;-73
2022/04/27 00:25:14;;;;;;;;;;;;;;;11.06;47.03;101206.84;4999404;28;6886;-74
2022/04/27 00:27:40;;;;;;;;;;;;;;;11.03;46.88;101199.00;4980329;28;6776;-73
2022/04/27 00:30:06;;;;;;;;;;;;;;;11.00;46.94;101211.63;4980600;28;6890;-73
2022/04/27 00:32:32;;;;;;;;;;;;;;;10.97;46.87;101207.22;4977571;28;7139;-73
2022/04/27 00:34:58;;;;;;;;;;;;;;;10.92;47.07;101206.03;4982936;28;7618;-73
2022/04/27 00:37:23;;;;;;;;;;;;;;;10.89;46.71;101201.59;4998240;28;6835;-73
2022/04/27 00:39:49;;;;;;;;;;;;;;;10.86;47.19;101206.56;4983589;28;6780;-73
2022/04/27 00:42:22;;;;;;;;;;;;;;;10.80;47.25;101207.09;4976510;28;6787;-73
2022/04/27 00:44:48;;;;;;;;;;;;;;;10.77;47.70;101212.03;4967661;28;7150;-73
2022/04/27 00:47:17;;;;;;;;;;;;;;;10.74;47.22;101205.84;4983331;28;6872;-73
2022/04/27 00:49:51;;;;;;;;;;;;;;;10.71;47.94;101206.53;4982854;28;7007;-73
2022/04/27 00:52:19;;;;;;;;;;;;;;;10.67;47.57;101205.44;4938993;28;7069;-73
2022/04/27 00:54:53;;;;;;;;;;;;;;;10.63;47.91;101211.19;4982478;28;6819;-73
2022/04/27 00:57:23;;;;;;;;;;;;;;;10.61;47.35;101212.75;4973618;28;6883;-73
2022/04/27 00:59:48;;;;;;;;;;;;;;;10.57;47.77;101210.81;4980617;28;6816;-73
2022/04/27 01:02:16;;;;;;;;;;;;;;;10.53;48.39;101214.88;4975377;28;6784;-73
2022/04/27 01:04:42;;;;;;;;;;;;;;;10.50;48.24;101213.78;4983089;28;6962;-73
2022/04/27 01:07:10;;;;;;;;;;;;;;;10.45;47.75;101216.06;4965462;28;6989;-73
2022/04/27 01:09:36;;;;;;;;;;;;;;;10.41;48.35;101217.56;4986208;28;7058;-73
2022/04/27 01:12:02;;;;;;;;;;;;;;;10.39;48.64;101219.09;4982005;28;6788;-73
2022/04/27 01:14:28;;;;;;;;;;;;;;;10.37;48.56;101215.56;4980686;28;7625;-73
2022/04/27 01:16:56;;;;;;;;;;;;;;;10.34;48.11;101215.41;4967329;28;6970;-74
2022/04/27 01:19:26;;;;;;;;;;;;;;;10.32;48.23;101222.06;4983460;28;6792;-74
2022/04/27 01:21:54;;;;;;;;;;;;;;;10.28;48.79;101218.47;4999354;28;6880;-74
2022/04/27 01:24:24;;;;;;;;;;;;;;;10.25;48.73;101227.63;5003269;28;6792;-74
2022/04/27 01:26:51;;;;;;;;;;;;;;;10.21;48.93;101221.44;4986810;28;7101;-74
2022/04/27 01:29:19;;;;;;;;;;;;;;;10.18;48.60;101226.34;4997588;28;6967;-74
2022/04/27 01:31:45;;;;;;;;;;;;;;;10.13;49.05;101222.63;4985359;28;7303;-74
2022/04/27 01:34:12;;;;;;;;;;;;;;;10.10;48.47;101217.31;4961193;28;6978;-74
2022/04/27 01:36:39;;;;;;;;;;;;;;;10.05;49.34;101221.25;5000997;28;6991;-74
2022/04/27 01:39:06;;;;;;;;;;;;;;;10.01;49.74;101225.28;5000280;28;8016;-74
2022/04/27 01:41:33;;;;;;;;;;;;;;;9.98;49.83;101230.22;4987305;28;7023;-74
2022/04/27 01:43:59;;;;;;;;;;;;;;;9.94;49.93;101226.56;4999324;28;6808;-74
2022/04/27 01:46:26;;;;;;;;;;;;;;;9.92;49.96;101235.84;4982243;28;6788;-74
2022/04/27 01:48:51;;;;;;;;;;;;;;;9.91;49.41;101240.84;4986226;28;6888;-74
2022/04/27 01:51:18;;;;;;;;;;;;;;;9.85;49.72;101234.56;4970427;28;6783;-74
2022/04/27 01:56:47;;;;;;;;;;;;;;;9.73;50.38;101231.19;4984863;28;10935;-74
2022/04/27 01:59:14;;;;;;;;;;;;;;;9.68;49.86;101233.44;4985244;28;6816;-74
2022/04/27 02:01:43;;;;;;;;;;;;;;;9.63;49.83;101241.63;4973022;28;7560;-74
2022/04/27 02:04:09;;;;;;;;;;;;;;;9.56;49.56;101238.69;4980394;28;7090;-74
2022/04/27 02:06:38;;;;;;;;;;;;;;;9.51;50.52;101245.16;4986831;28;6811;-73
2022/04/27 02:09:05;;;;;;;;;;;;;;;9.45;50.11;101244.75;4971891;28;6998;-73
2022/04/27 02:11:32;;;;;;;;;;;;;;;9.41;49.86;101250.44;4986252;28;6800;-73
2022/04/27 02:13:58;;;;;;;;;;;;;;;9.36;50.86;101251.81;4984762;28;6884;-73
2022/04/27 02:16:26;;;;;;;;;;;;;;;9.33;50.72;101246.50;4969421;28;7313;-73
2022/04/27 02:18:52;;;;;;;;;;;;;;;9.29;51.20;101256.53;4999128;28;6823;-73
2022/04/27 02:21:18;;;;;;;;;;;;;;;9.26;49.95;101253.75;4970274;28;6849;-73
2022/04/27 02:23:47;;;;;;;;;;;;;;;9.23;51.08;101253.56;4988679;28;6803;-73
2022/04/27 02:26:12;;;;;;;;;;;;;;;9.22;51.05;101262.00;5001923;28;7154;-73
2022/04/27 02:28:38;;;;;;;;;;;;;;;9.19;51.29;101261.81;4986618;28;6950;-73
2022/04/27 02:31:04;;;;;;;;;;;;;;;9.17;51.00;101268.47;4985513;28;6990;-73
2022/04/27 02:33:30;;;;;;;;;;;;;;;9.12;51.37;101265.59;5002624;28;6807;-73
2022/04/27 02:35:57;;;;;;;;;;;;;;;9.11;51.43;101262.97;4979517;28;6812;-73
2022/04/27 02:38:23;;;;;;;;;;;;;;;9.09;51.50;101269.66;4986078;28;7605;-74
2022/04/27 02:40:48;;;;;;;;;;;;;;;9.08;51.25;101272.97;4987449;28;6788;-74
2022/04/27 02:43:16;;;;;;;;;;;;;;;9.07;51.60;101278.88;4985531;28;6807;-74
2022/04/27 02:45:41;;;;;;;;;;;;;;;9.05;50.80;101278.78;4982416;28;6808;-74
2022/04/27 02:48:08;;;;;;;;;;;;;;;9.00;51.19;101285.22;4987605;28;6775;-74
2022/04/27 02:53:18;;;;;;;;;;;;;;;8.88;50.97;101286.19;4979495;28;6820;-74
2022/04/27 02:55:45;;;;;;;;;;;;;;;8.84;51.58;101284.19;4985425;28;6964;-74
2022/04/27 02:58:10;;;;;;;;;;;;;;;8.82;52.45;101288.28;4983962;28;6791;-74
2022/04/27 03:00:36;;;;;;;;;;;;;;;8.82;52.60;101289.97;4984335;28;7161;-74
2022/04/27 03:03:03;;;;;;;;;;;;;;;8.78;51.49;101288.88;4985260;28;6780;-74
2022/04/27 03:05:28;;;;;;;;;;;;;;;8.77;52.51;101291.31;4986769;28;6808;-74
2022/04/27 03:07:54;;;;;;;;;;;;;;;8.73;51.95;101290.22;4997718;28;6803;-74
2022/04/27 03:10:20;;;;;;;;;;;;;;;8.70;52.20;101293.47;4984184;28;6900;-74
2022/04/27 03:12:46;;;;;;;;;;;;;;;8.69;52.86;101291.69;4984271;28;6867;-74
2022/04/27 03:15:12;;;;;;;;;;;;;;;8.68;51.86;101289.88;4982640;28;7856;-73
2022/04/27 03:17:37;;;;;;;;;;;;;;;8.68;51.67;101289.88;4980455;28;6863;-73
2022/04/27 03:20:04;;;;;;;;;;;;;;;8.66;52.30;101288.91;4982753;28;6863;-73
2022/04/27 03:22:30;;;;;;;;;;;;;;;8.65;52.67;101287.13;4983581;28;6804;-73
2022/04/27 03:24:56;;;;;;;;;;;;;;;8.62;52.58;101289.47;4985255;28;6807;-74
2022/04/27 03:27:22;;;;;;;;;;;;;;;8.59;52.56;101296.91;4981320;28;6819;-73
2022/04/27 03:29:47;;;;;;;;;;;;;;;8.57;52.43;101299.38;4978655;28;6807;-73
2022/04/27 03:32:13;;;;;;;;;;;;;;;8.54;52.92;101291.47;4982234;28;6985;-73
2022/04/27 03:34:39;;;;;;;;;;;;;;;8.53;52.76;101299.06;4985160;28;6971;-73
2022/04/27 03:37:05;;;;;;;;;;;;;;;8.48;52.89;101297.00;4979532;28;6980;-73
2022/04/27 03:39:30;;;;;;;;;;;;;;;8.47;52.81;101297.78;4982381;28;7717;-74
2022/04/27 03:41:57;;;;;;;;;;;;;;;8.47;53.42;101302.91;4984504;28;6792;-74
2022/04/27 03:44:23;;;;;;;;;;;;;;;8.47;52.67;101302.91;4986431;28;7231;-73
2022/04/27 03:46:48;;;;;;;;;;;;;;;8.49;52.99;101305.56;4998441;28;6796;-73
2022/04/27 03:49:14;;;;;;;;;;;;;;;8.50;52.60;101301.34;4983405;28;6941;-73
2022/04/27 03:51:40;;;;;;;;;;;;;;;8.50;52.87;101299.69;4985744;28;7395;-73
2022/04/27 03:54:05;;;;;;;;;;;;;;;8.48;52.79;101303.81;4983290;28;7264;-73
2022/04/27 03:56:31;;;;;;;;;;;;;;;8.47;53.40;101305.47;4985011;28;6791;-73
2022/04/27 03:58:57;;;;;;;;;;;;;;;8.46;53.44;101307.94;4984567;28;6879;-73
2022/04/27 04:01:24;;;;;;;;;;;;;;;8.43;53.02;101311.13;4981542;28;6788;-73
2022/04/27 04:03:49;;;;;;;;;;;;;;;8.42;53.74;101308.47;4980858;28;6795;-73
2022/04/27 04:06:15;;;;;;;;;;;;;;;8.40;53.80;101312.59;4979828;28;6807;-73
2022/04/27 04:08:41;;;;;;;;;;;;;;;8.36;53.14;101311.47;4981609;28;6784;-73
2022/04/27 04:11:07;;;;;;;;;;;;;;;8.37;53.60;101313.25;4985411;28;6799;-73
2022/04/27 04:13:32;;;;;;;;;;;;;;;8.37;53.14;101314.94;4980662;28;6783;-73
2022/04/27 04:15:58;;;;;;;;;;;;;;;8.36;53.26;101314.03;4978001;28;6776;-73
2022/04/27 04:18:24;;;;;;;;;;;;;;;8.36;53.62;101319.13;4977258;28;8266;-73
2022/04/27 04:20:49;;;;;;;;;;;;;;;8.36;52.86;101324.25;4966475;28;6985;-73
2022/04/27 04:23:15;;;;;;;;;;;;;;;8.35;53.56;101319.91;4982143;28;6859;-75
2022/04/27 04:28:31;;;;;;;;;;;;;;;8.33;53.95;101321.47;4981839;28;7011;-77
2022/04/27 04:31:02;;;;;;;;;;;;;;;8.31;53.80;101321.38;4996668;28;6811;-76
2022/04/27 04:33:28;;;;;;;;;;;;;;;8.32;53.89;101327.38;4983780;28;7317;-76
2022/04/27 04:35:56;;;;;;;;;;;;;;;8.31;53.20;101331.56;4984501;28;7726;-76
2022/04/27 04:38:21;;;;;;;;;;;;;;;8.31;53.91;101330.72;4984615;28;6808;-76
2022/04/27 04:40:47;;;;;;;;;;;;;;;8.33;53.68;101334.25;4984033;28;6799;-74
2022/04/27 04:43:13;;;;;;;;;;;;;;;8.36;53.39;101336.16;4997464;28;6796;-74
2022/04/27 04:45:40;;;;;;;;;;;;;;;8.38;53.83;101337.13;4980439;28;7091;-75
2022/04/27 04:48:08;;;;;;;;;;;;;;;8.40;54.33;101344.16;4982501;28;7340;-75
2022/04/27 04:50:36;;;;;;;;;;;;;;;8.42;53.64;101350.25;4982344;28;6816;-74
2022/04/27 04:53:01;;;;;;;;;;;;;;;8.44;53.46;101351.22;4983337;28;6994;-74
2022/04/27 04:55:27;;;;;;;;;;;;;;;8.48;54.90;101353.22;4966823;28;7920;-74
2022/04/27 04:57:53;;;;;;;;;;;;;;;8.52;53.82;101354.38;4985431;28;6795;-74
2022/04/27 05:00:18;;;;;;;;;;;;;;;8.58;54.37;101352.25;4984652;28;6807;-74
2022/04/27 05:02:44;;;;;;;;;;;;;;;8.65;54.97;101357.81;4964548;28;6867;-74
2022/04/27 05:05:10;;;;;;;;;;;;;;;8.74;54.75;101354.22;4983884;28;6959;-74
2022/04/27 05:07:36;;;;;;;;;;;;;;;8.87;55.50;101356.00;4985633;28;7261;-74
2022/04/27 05:10:03;;;;;;;;;;;;;;;9.02;55.09;101356.16;5001305;28;6882;-74
2022/04/27 05:12:29;;;;;;;;;;;;;;;9.19;54.97;101356.47;4983910;28;7156;-74
2022/04/27 05:14:55;;;;;;;;;;;;;;;9.35;56.04;101360.03;4985521;28;6803;-74
2022/04/27 05:17:22;;;;;;;;;;;;;;;9.50;55.15;101355.97;4997224;28;6776;-74
2022/04/27 05:19:52;;;;;;;;;;;;;;;9.68;54.93;101365.69;4982851;28;6792;-74
2022/04/27 05:22:18;;;;;;;;;;;;;;;9.84;55.33;101368.47;4981869;28;7047;-75
2022/04/27 05:24:44;;;;;;;;;;;;;;;10.02;54.72;101370.47;4982941;28;6962;-75
2022/04/27 05:27:10;;;;;;;;;;;;;;;10.19;55.31;101371.59;4986730;28;6813;-75
2022/04/27 05:32:20;;;;;;;;;;;;;;;10.44;54.08;101378.31;4983366;28;6820;-75
2022/04/27 05:34:45;;;;;;;;;;;;;;;10.51;53.74;101379.59;4984035;28;6867;-75
2022/04/27 05:37:12;;;;;;;;;;;;;;;10.57;54.20;101385.13;4982952;28;6792;-74
2022/04/27 05:39:38;;;;;;;;;;;;;;;10.62;53.63;101382.88;4978124;28;7152;-74
2022/04/27 05:42:04;;;;;;;;;;;;;;;10.68;53.81;101384.13;4979512;28;8748;-74
2022/04/27 05:44:31;;;;;;;;;;;;;;;10.77;53.50;101388.06;4984656;28;6834;-74
2022/04/27 05:46:57;;;;;;;;;;;;;;;10.87;53.16;101397.25;4980845;28;6896;-75
2022/04/27 05:49:23;;;;;;;;;;;;;;;10.92;53.22;101394.19;4982722;28;6863;-75
2022/04/27 05:51:49;;;;;;;;;;;;;;;11.02;53.18;101397.31;4980478;28;6779;-75
2022/04/27 05:54:15;;;;;;;;;;;;;;;11.10;52.75;101396.97;4975963;28;6776;-75
2022/04/27 05:56:42;;;;;;;;;;;;;;;11.19;53.12;101398.34;4966888;28;6785;-74
2022/04/27 05:59:09;;;;;;;;;;;;;;;11.28;52.26;101405.72;4984516;28;6792;-74
2022/04/27 06:01:35;;;;;;;;;;;;;;;11.31;52.04;101414.47;4981606;28;6788;-74
2022/04/27 06:04:01;;;;;;;;;;;;;;;11.37;51.90;101408.84;4982811;28;6963;-74
2022/04/27 06:06:27;;;;;;;;;;;;;;;11.42;51.83;101410.03;4984688;28;6844;-74
2022/04/27 06:08:52;;;;;;;;;;;;;;;11.46;51.89;101411.97;4987238;28;7263;-74
2022/04/27 06:11:22;;;;;;;;;;;;;;;11.49;51.73;101414.75;4986170;28;7258;-74
2022/04/27 06:13:48;;;;;;;;;;;;;;;11.50;51.57;101420.75;4987462;28;6883;-74
2022/04/27 06:16:14;;;;;;;;;;;;;;;11.50;51.17;101420.75;4998523;28;6791;-74
2022/04/27 06:18:41;;;;;;;;;;;;;;;11.51;51.61;101419.94;4985092;28;7145;-74
2022/04/27 06:21:09;;;;;;;;;;;;;;;11.53;51.57;101421.81;4989487;28;6792;-74
2022/04/27 06:23:38;;;;;;;;;;;;;;;11.60;51.94;101424.78;4965286;28;6892;-74
2022/04/27 06:26:06;;;;;;;;;;;;;;;11.66;52.30;101419.97;4968367;28;6808;-74
2022/04/27 06:28:35;;;;;;;;;;;;;;;11.76;52.12;101418.88;4985251;28;6820;-74
2022/04/27 06:31:01;;;;;;;;;;;;;;;11.85;51.90;101428.78;4983529;28;7221;-74
2022/04/27 06:33:27;;;;;;;;;;;;;;;11.94;51.99;101426.75;4982693;28;7654;-74
2022/04/27 06:35:53;;;;;;;;;;;;;;;12.03;51.92;101421.31;4964274;28;6776;-74
2022/04/27 06:38:19;;;;;;;;;;;;;;;12.12;51.42;101431.25;4960427;28;6958;-74
2022/04/27 06:40:45;;;;;;;;;;;;;;;12.18;51.59;101435.03;4961971;28;6807;-74
2022/04/27 06:43:11;;;;;;;;;;;;;;;12.24;50.80;101433.66;4980257;28;6800;-73
2022/04/27 06:45:37;;;;;;;;;;;;;;;12.31;51.24;101435.75;4946774;28;7284;-73
2022/04/27 06:48:03;;;;;;;;;;;;;;;12.40;51.21;101432.84;4985169;28;6780;-74
2022/04/27 06:50:29;;;;;;;;;;;;;;;12.48;50.89;101435.03;4967776;28;6812;-74
2022/04/27 06:52:59;;;;;;;;;;;;;;;12.59;51.10;101438.22;4985526;28;6796;-74
2022/04/27 06:55:26;;;;;;;;;;;;;;;12.70;50.86;101436.25;4967604;28;8023;-74
2022/04/27 06:57:53;;;;;;;;;;;;;;;12.81;51.53;101444.56;4980393;28;6815;-74
2022/04/27 07:00:20;;;;;;;;;;;;;;;12.92;51.64;101438.31;4949864;28;8536;-74
2022/04/27 07:02:46;;;;;;;;;;;;;;;13.05;50.87;101449.28;4982101;28;6999;-74
2022/04/27 07:05:19;;;;;;;;;;;;;;;13.17;51.47;101449.97;4998730;28;6791;-74
2022/04/27 07:07:46;;;;;;;;;;;;;;;13.28;50.69;101447.97;4999909;28;6819;-74
2022/04/27 07:10:14;;;;;;;;;;;;;;;13.38;50.74;101449.34;4965808;28;6978;-74
2022/04/27 07:12:42;;;;;;;;;;;;;;;13.49;50.35;101446.47;4963181;28;7019;-73
2022/04/27 07:15:09;;;;;;;;;;;;;;;13.60;51.03;101453.97;4984765;28;6804;-74
2022/04/27 07:17:35;;;;;;;;;;;;;;;13.73;50.26;101452.91;4959173;28;6995;-73
2022/04/27 07:20:00;;;;;;;;;;;;;;;13.84;50.76;101450.00;4979815;28;6776;-73
2022/04/27 07:22:26;;;;;;;;;;;;;;;13.95;49.73;101453.13;4986564;28;7869;-73
2022/04/27 07:24:52;;;;;;;;;;;;;;;14.03;50.18;101450.13;4996742;28;6788;-73
2022/04/27 07:27:18;;;;;;;;;;;;;;;14.11;50.30;101460.81;4984893;28;6780;-73
2022/04/27 07:29:44;;;;;;;;;;;;;;;14.20;49.44;101457.84;4966911;28;6792;-74
2022/04/27 07:32:10;;;;;;;;;;;;;;;14.30;50.50;101460.06;4999096;28;6784;-74
2022/04/27 07:34:35;;;;;;;;;;;;;;;14.41;49.94;101460.59;4982581;28;6784;-74
2022/04/27 07:37:03;;;;;;;;;;;;;;;14.53;49.32;101459.41;4988539;28;6795;-74
2022/04/27 07:39:29;;;;;;;;;;;;;;;14.64;49.44;101468.59;5000791;28;6864;-74
2022/04/27 07:41:56;;;;;;;;;;;;;;;14.75;48.98;101469.09;4998798;28;6784;-74
2022/04/27 07:44:22;;;;;;;;;;;;;;;14.90;48.57;101470.66;4982703;28;6926;-73
2022/04/27 07:46:48;;;;;;;;;;;;;;;14.99;48.47;101464.22;4979015;28;8590;-73
2022/04/27 07:49:19;;;;;;;;;;;;;;;15.08;48.65;101471.53;4982175;28;6808;-73
2022/04/27 07:51:47;;;;;;;;;;;;;;;15.19;47.85;101471.16;4979662;28;6807;-73
2022/04/27 07:54:13;;;;;;;;;;;;;;;15.28;46.89;101474.16;4983596;28;6819;-73
2022/04/27 07:56:40;;;;;;;;;;;;;;;15.40;47.62;101471.22;4986132;28;7149;-74
2022/04/27 07:59:06;;;;;;;;;;;;;;;15.51;47.02;101474.31;4965699;28;6812;-74
2022/04/27 08:01:32;;;;;;;;;;;;;;;15.60;47.29;101477.28;4978370;28;8232;-74
2022/04/27 08:03:58;;;;;;;;;;;;;;;15.66;47.02;101481.84;4965301;28;6788;-74
2022/04/27 08:06:24;;;;;;;;;;;;;;;15.72;46.83;101476.97;4982883;28;6991;-74
2022/04/27 08:08:50;;;;;;;;;;;;;;;15.79;46.26;101478.13;4966890;28;6788;-74
2022/04/27 08:11:16;;;;;;;;;;;;;;;15.90;46.31;101481.19;4967054;28;6795;-74
2022/04/27 08:13:43;;;;;;;;;;;;;;;16.03;46.01;101486.06;4997547;28;6971;-74
2022/04/27 08:16:12;;;;;;;;;;;;;;;16.10;45.65;101480.34;4985399;28;6971;-74
2022/04/27 08:18:39;;;;;;;;;;;;;;;16.18;45.41;101490.16;4981334;28;6804;-74
2022/04/27 08:21:15;;;;;;;;;;;;;;;16.26;45.00;101487.88;4968987;28;7309;-74
2022/04/27 08:23:43;;;;;;;;;;;;;;;16.33;44.79;101484.75;4982618;28;6808;-74
2022/04/27 08:26:10;;;;;;;;;;;;;;;16.37;44.89;101490.09;4980849;28;6799;-74
2022/04/27 08:28:38;;;;;;;;;;;;;;;16.41;44.73;101491.09;4982551;28;6804;-74
2022/04/27 08:31:05;;;;;;;;;;;;;;;16.46;44.15;101494.75;4985247;28;6898;-74
2022/04/27 08:33:31;;;;;;;;;;;;;;;16.50;44.44;101488.00;4983243;28;6997;-74
2022/04/27 08:35:57;;;;;;;;;;;;;;;16.54;44.07;101489.03;4968031;28;6871;-74
2022/04/27 08:38:24;;;;;;;;;;;;;;;16.59;44.04;101495.25;4983372;28;7110;-74
2022/04/27 08:40:50;;;;;;;;;;;;;;;16.67;43.36;101496.44;4957965;28;6974;-74
2022/04/27 08:43:16;;;;;;;;;;;;;;;16.77;43.24;101496.00;4980592;28;7870;-74
2022/04/27 08:45:45;;;;;;;;;;;;;;;16.86;42.46;101495.50;4979304;28;6784;-73
2022/04/27 08:48:14;;;;;;;;;;;;;;;16.95;42.17;101494.97;4999616;28;6820;-73
2022/04/27 08:50:40;;;;;;;;;;;;;;;17.08;41.77;101498.97;4983451;28;6815;-73
2022/04/27 08:53:07;;;;;;;;;;;;;;;17.17;41.75;101501.00;4983860;28;6860;-73
2022/04/27 08:55:36;;;;;;;;;;;;;;;17.27;41.79;101497.94;4982217;28;6800;-73
2022/04/27 08:58:22;;;;;;;;;;;;;;;17.46;41.48;101491.75;4962537;28;7220;-73
2022/04/27 09:00:48;;;;;;;;;;;;;;;17.71;42.30;101492.63;4982868;28;6898;-73
2022/04/27 09:03:32;;;;;;;;;;;;;;;18.06;41.63;101493.88;4981511;28;7375;-73
2022/04/27 09:06:01;;;;;;;;;;;;;;;18.39;41.22;101491.53;4996628;28;6832;-73
2022/04/27 09:08:40;;;;;;;;;;;;;;;18.85;40.98;101488.66;4979764;28;7175;-73
2022/04/27 09:11:33;;;;;;;;;;;;;;;19.43;39.61;101496.47;4983527;28;7022;-72
2022/04/27 09:14:02;;;;;;;;;;;;;;;20.05;38.28;101492.13;4983820;28;8032;-72
2022/04/27 09:20:46;;;;;;;;;;;;;;;20.58;36.98;101493.41;4984332;28;7160;-73
2022/04/27 09:22:06;;;;;;;;;;;;;;;21.85;35.74;101485.72;4979839;28;7032;-73
2022/04/27 09:24:55;;;;;;;;;;;;;;;22.38;34.97;101485.75;4981528;28;7335;-73
2022/04/27 09:27:23;;;;;;;;;;;;;;;22.78;34.08;101486.41;4981565;28;6804;-73
2022/04/27 09:30:03;;;;;;;;;;;;;;;23.23;34.02;101488.75;4982379;28;6828;-73
2022/04/27 09:32:30;;;;;;;;;;;;;;;23.77;33.22;101485.94;4984518;28;7298;-73
2022/04/27 09:35:00;;;;;;;;;;;;;;;24.30;33.00;101492.56;4981275;28;6832;-73
2022/04/27 09:37:30;;;;;;;;;;;;;;;24.60;31.92;101484.91;4999736;28;6824;-73
2022/04/27 09:40:07;;;;;;;;;;;;;;;24.67;30.94;101487.59;4999481;28;6831;-73
2022/04/27 09:42:43;;;;;;;;;;;;;;;24.76;30.88;101488.50;5003163;28;7930;-73
2022/04/27 09:45:25;;;;;;;;;;;;;;;25.00;30.89;101485.16;4986519;28;6824;-73
2022/04/27 09:48:04;;;;;;;;;;;;;;;25.35;30.73;101484.47;4984563;28;6788;-73
2022/04/27 09:50:58;;;;;;;;;;;;;;;25.61;29.53;101482.81;4970294;28;6800;-72
2022/04/27 09:53:25;;;;;;;;;;;;;;;25.54;28.98;101487.19;4983470;28;7686;-72
2022/04/27 09:55:54;;;;;;;;;;;;;;;25.41;29.16;101485.38;5003723;28;6827;-72
2022/04/27 09:58:25;;;;;;;;;;;;;;;25.41;29.08;101495.88;4990360;28;6812;-71
2022/04/27 10:00:56;;;;;;;;;;;;;;;25.41;29.14;101486.22;4985474;28;6816;-72
2022/04/27 10:03:25;;;;;;;;;;;;;;;25.40;28.58;101483.59;4967932;28;6815;-71
2022/04/27 10:05:51;;;;;;;;;;;;;;;25.42;28.70;101489.75;4988212;28;7070;-72
2022/04/27 10:08:19;;;;;;;;;;;;;;;25.70;28.29;101490.72;4987071;28;6982;-72
2022/04/27 10:10:47;;;;;;;;;;;;;;;26.15;27.97;101485.50;4987074;28;6863;-73
2022/04/27 10:13:16;;;;;;;;;;;;;;;26.40;27.81;101480.28;4986635;28;7307;-72
2022/04/27 10:15:44;;;;;;;;;;;;;;;26.43;27.32;101482.03;4986152;28;7580;-72
2022/04/27 10:18:14;;;;;;;;;;;;;;;26.27;27.23;101470.66;4969512;28;6804;-72
2022/04/27 10:20:41;;;;;;;;;;;;;;;26.15;27.40;101472.38;4963836;28;9990;-72
2022/04/27 10:23:28;;;;;;;;;;;;;;;26.21;27.08;101468.91;4985207;28;7434;-72
2022/04/27 10:26:18;;;;;;;;;;;;;;;26.39;27.27;101467.13;4987246;28;6969;-72
2022/04/27 10:28:48;;;;;;;;;;;;;;;26.54;26.61;101468.88;4986701;28;7003;-72
2022/04/27 10:31:33;;;;;;;;;;;;;;;26.78;26.46;101467.94;4985209;28;7028;-72
2022/04/27 10:33:59;;;;;;;;;;;;;;;27.16;26.16;101474.00;4985721;28;7497;-72
2022/04/27 10:36:28;;;;;;;;;;;;;;;27.39;26.16;101465.09;4986380;28;7354;-72
2022/04/27 10:39:12;;;;;;;;;;;;;;;27.77;25.83;101464.03;4984463;28;6939;-72
2022/04/27 10:42:01;;;;;;;;;;;;;;;28.08;25.66;101463.78;4987656;28;6951;-72
2022/04/27 10:44:55;;;;;;;;;;;;;;;28.28;25.45;101454.84;4969782;28;6991;-72
2022/04/27 10:47:22;;;;;;;;;;;;;;;28.34;25.22;101460.06;4986868;28;8101;-71
2022/04/27 10:50:11;;;;;;;;;;;;;;;28.06;24.98;101460.28;4986465;28;6816;-71
2022/04/27 10:52:53;;;;;;;;;;;;;;;27.79;25.23;101461.41;4986780;28;6803;-72
2022/04/27 10:55:37;;;;;;;;;;;;;;;27.66;24.99;101468.50;5000899;28;6876;-72
2022/04/27 10:58:30;;;;;;;;;;;;;;;27.55;25.10;101464.19;4988014;28;6823;-72
2022/04/27 11:00:59;;;;;;;;;;;;;;;27.69;25.09;101473.72;4983115;28;9212;-72
2022/04/27 11:03:26;;;;;;;;;;;;;;;27.69;24.83;101460.56;4986441;28;6888;-72
2022/04/27 11:06:03;;;;;;;;;;;;;;;27.72;25.11;101465.84;4955517;28;6784;-72
2022/04/27 11:08:56;;;;;;;;;;;;;;;27.93;24.75;101462.16;4985323;28;6812;-71
2022/04/27 11:11:27;;;;;;;;;;;;;;;28.18;24.25;101468.97;4987696;28;7086;-71
2022/04/27 11:14:00;;;;;;;;;;;;;;;28.27;24.25;101461.03;4977806;28;6959;-72
2022/04/27 11:16:26;;;;;;;;;;;;;;;28.53;24.82;101462.53;4980743;28;6791;-72
2022/04/27 11:18:55;;;;;;;;;;;;;;;28.91;24.68;101458.63;4986520;28;6775;-72
2022/04/27 11:21:25;;;;;;;;;;;;;;;29.08;23.46;101454.91;4983195;28;6808;-72
2022/04/27 11:23:51;;;;;;;;;;;;;;;29.12;23.69;101459.25;4984794;28;7433;-72
2022/04/27 11:26:17;;;;;;;;;;;;;;;29.26;23.26;101461.69;4983752;28;6828;-72
2022/04/27 11:28:45;;;;;;;;;;;;;;;29.15;23.37;101455.69;4983212;28;6860;-72
2022/04/27 11:31:13;;;;;;;;;;;;;;;29.04;23.53;101455.81;4977619;28;6800;-72
2022/04/27 11:33:40;;;;;;;;;;;;;;;29.22;23.26;101460.00;4982867;28;6823;-72
2022/04/27 11:36:19;;;;;;;;;;;;;;;29.40;22.78;101448.31;4983066;28;7341;-72
2022/04/27 11:38:45;;;;;;;;;;;;;;;29.69;23.50;101439.09;4985780;28;6824;-72
2022/04/27 11:41:23;;;;;;;;;;;;;;;30.04;22.96;101445.59;4983156;28;7234;-72
2022/04/27 11:43:53;;;;;;;;;;;;;;;30.38;22.97;101443.25;4983230;28;6812;-72
2022/04/27 11:46:19;;;;;;;;;;;;;;;30.28;21.75;101440.78;4980817;28;6812;-72
2022/04/27 11:48:50;;;;;;;;;;;;;;;29.92;21.76;101448.41;4979467;28;7174;-72
2022/04/27 11:51:16;;;;;;;;;;;;;;;29.72;22.14;101446.97;4994498;28;6804;-71
2022/04/27 11:53:48;;;;;;;;;;;;;;;29.71;21.26;101439.94;4980944;28;6776;-72
2022/04/27 11:56:18;;;;;;;;;;;;;;;29.63;21.53;101450.66;4983652;28;7030;-72
2022/04/27 11:58:46;;;;;;;;;;;;;;;29.59;21.93;101443.66;4986754;28;6796;-72
2022/04/27 12:01:20;;;;;;;;;;;;;;;29.87;21.47;101443.22;4982520;28;7117;-72
2022/04/27 12:03:49;;;;;;;;;;;;;;;30.06;21.65;101445.59;4966400;28;6964;-72
2022/04/27 12:06:19;;;;;;;;;;;;;;;30.21;20.83;101437.41;4986166;28;8065;-73
2022/04/27 12:08:45;;;;;;;;;;;;;;;30.41;20.67;101437.91;4983244;28;7019;-73
2022/04/27 12:11:23;;;;;;;;;;;;;;;30.62;20.92;101440.16;4998122;28;6784;-73
2022/04/27 12:13:56;;;;;;;;;;;;;;;30.78;20.47;101437.22;4984671;28;6991;-72
2022/04/27 12:16:28;;;;;;;;;;;;;;;30.63;20.93;101433.97;4983354;28;6986;-72
2022/04/27 12:18:54;;;;;;;;;;;;;;;30.48;21.81;101432.50;4982433;28;6800;-72
2022/04/27 12:21:26;;;;;;;;;;;;;;;30.44;21.32;101443.16;4985060;28;6795;-72
2022/04/27 12:23:56;;;;;;;;;;;;;;;30.45;21.88;101431.69;4985152;28;6839;-72
2022/04/27 12:26:24;;;;;;;;;;;;;;;30.46;21.83;101430.78;4982317;28;6919;-73
2022/04/27 12:28:50;;;;;;;;;;;;;;;30.61;21.48;101435.78;4968358;28;7075;-72
2022/04/27 12:31:20;;;;;;;;;;;;;;;30.66;22.01;101432.19;4983836;28;6788;-72
2022/04/27 12:33:49;;;;;;;;;;;;;;;30.50;21.53;101432.44;4984834;28;6883;-72
2022/04/27 12:39:23;;;;;;;;;;;;;;;30.58;21.51;101430.53;4983731;28;6888;-72
2022/04/27 12:41:52;;;;;;;;;;;;;;;30.71;20.88;101425.00;4983730;28;7152;-72
2022/04/27 12:44:35;;;;;;;;;;;;;;;30.84;21.63;101423.88;4976388;28;6827;-73
2022/04/27 12:47:08;;;;;;;;;;;;;;;30.88;21.08;101417.59;4996063;28;7318;-72
2022/04/27 12:49:42;;;;;;;;;;;;;;;31.03;21.35;101421.69;4985363;28;6824;-72
2022/04/27 12:52:29;;;;;;;;;;;;;;;31.01;21.29;101412.91;4984432;28;6807;-72
2022/04/27 12:55:11;;;;;;;;;;;;;;;30.81;20.96;101410.72;4985053;28;6808;-72
2022/04/27 12:57:55;;;;;;;;;;;;;;;30.67;21.14;101418.94;4982760;28;8000;-72
2022/04/27 13:00:38;;;;;;;;;;;;;;;30.81;20.89;101416.00;4965248;28;6795;-72
2022/04/27 13:03:05;;;;;;;;;;;;;;;30.96;20.61;101413.94;4984488;28;7393;-73
2022/04/27 13:05:31;;;;;;;;;;;;;;;30.89;20.39;101411.41;4978109;28;7050;-72
2022/04/27 13:07:57;;;;;;;;;;;;;;;30.74;20.22;101412.59;4981330;28;7136;-72
2022/04/27 13:13:08;;;;;;;;;;;;;;;30.66;20.43;101409.25;4983415;28;6957;-72
2022/04/27 13:15:34;;;;;;;;;;;;;;;30.68;21.00;101403.91;4984780;28;7876;-72
2022/04/27 13:18:00;;;;;;;;;;;;;;;30.66;20.25;101400.44;4985677;28;6846;-72